createdAt,value
2018-04-10T00:00:20.530Z,0
2018-04-10T00:01:22.344Z,0
2018-04-10T00:02:24.224Z,0
2018-04-10T00:03:25.947Z,0
2018-04-10T00:04:27.731Z,0
2018-04-10T00:05:29.409Z,0
2018-04-10T00:06:31.317Z,0
2018-04-10T00:07:32.956Z,0
2018-04-10T00:08:34.769Z,0
2018-04-10T00:09:36.809Z,0
2018-04-10T00:10:38.498Z,0
2018-04-10T00:11:40.250Z,0
2018-04-10T00:12:42.027Z,0
2018-04-10T00:13:43.753Z,0
2018-04-10T00:14:45.741Z,0
2018-04-10T00:15:47.450Z,0
2018-04-10T00:16:49.250Z,0
2018-04-10T00:17:50.967Z,0
2018-04-10T00:18:52.933Z,0
2018-04-10T00:19:54.755Z,0
2018-04-10T00:20:56.641Z,0
2018-04-10T00:21:58.449Z,0
2018-04-10T00:23:00.248Z,0
2018-04-10T00:24:02.181Z,0
2018-04-10T00:25:04.001Z,0
2018-04-10T00:26:05.751Z,0
2018-04-10T00:27:07.618Z,0
2018-04-10T00:28:09.271Z,0
2018-04-10T00:29:11.831Z,0
2018-04-10T00:30:13.601Z,0
2018-04-10T00:31:15.423Z,0
2018-04-10T00:32:17.156Z,0
2018-04-10T00:33:19.052Z,0
2018-04-10T00:34:20.697Z,0
2018-04-10T00:35:22.473Z,0
2018-04-10T00:36:24.359Z,0
2018-04-10T00:37:26.262Z,0
2018-04-10T00:38:28.017Z,0
2018-04-10T00:39:30.009Z,0
2018-04-10T00:40:32.040Z,0
2018-04-10T00:41:33.780Z,0
2018-04-10T00:42:35.468Z,0
2018-04-10T00:43:37.372Z,0
2018-04-10T00:44:39.193Z,0
2018-04-10T00:45:41.181Z,0
2018-04-10T00:46:42.958Z,0
2018-04-10T00:47:44.646Z,0
2018-04-10T00:48:46.346Z,0
2018-04-10T00:49:48.126Z,0
2018-04-10T00:50:50.063Z,0
2018-04-10T00:51:51.852Z,0
2018-04-10T00:52:53.756Z,0
2018-04-10T00:53:55.641Z,0
2018-04-10T00:54:57.524Z,0
2018-04-10T00:55:59.276Z,0
2018-04-10T00:57:01.215Z,0
2018-04-10T00:58:02.937Z,0
2018-04-10T00:59:04.670Z,0
2018-04-10T01:00:06.397Z,0
2018-04-10T01:01:08.216Z,0
2018-04-10T01:02:10.004Z,0
2018-04-10T01:03:11.967Z,0
2018-04-10T01:04:13.829Z,0
2018-04-10T01:05:15.683Z,0
2018-04-10T01:06:17.471Z,0
2018-04-10T01:07:19.276Z,0
2018-04-10T01:08:20.928Z,0
2018-04-10T01:09:22.743Z,0
2018-04-10T01:10:24.527Z,0
2018-04-10T01:11:26.212Z,0
2018-04-10T01:12:28.094Z,0
2018-04-10T01:13:29.852Z,0
2018-04-10T01:14:31.778Z,0
2018-04-10T01:15:33.648Z,0
2018-04-10T01:16:35.472Z,0
2018-04-10T01:17:37.377Z,0
2018-04-10T01:18:39.180Z,0
2018-04-10T01:19:40.971Z,0
2018-04-10T01:20:42.766Z,0
2018-04-10T01:21:44.586Z,0
2018-04-10T01:22:46.372Z,0
2018-04-10T01:23:48.154Z,0
2018-04-10T01:24:49.991Z,0
2018-04-10T01:25:51.735Z,0
2018-04-10T01:26:53.507Z,0
2018-04-10T01:27:55.354Z,0
2018-04-10T01:28:57.128Z,0
2018-04-10T01:29:59.171Z,0
2018-04-10T01:31:00.907Z,0
2018-04-10T01:32:02.853Z,0
2018-04-10T01:33:04.780Z,0
2018-04-10T01:34:06.654Z,0
2018-04-10T01:35:08.377Z,0
2018-04-10T01:36:10.240Z,0
2018-04-10T01:37:12.116Z,0
2018-04-10T01:38:13.924Z,0
2018-04-10T01:39:15.708Z,0
2018-04-10T01:40:17.515Z,0
2018-04-10T01:41:19.235Z,0
2018-04-10T01:42:20.966Z,0
2018-04-10T01:43:22.684Z,0
2018-04-10T01:44:24.547Z,0
2018-04-10T01:45:26.409Z,0
2018-04-10T01:46:28.144Z,0
2018-04-10T01:47:30.070Z,0
2018-04-10T01:48:31.823Z,0
2018-04-10T01:49:33.542Z,0
2018-04-10T01:50:35.344Z,0
2018-04-10T01:51:37.089Z,0
2018-04-10T01:52:38.914Z,0
2018-04-10T01:53:40.683Z,0
2018-04-10T01:54:42.429Z,0
2018-04-10T01:55:44.167Z,0
2018-04-10T01:56:46.056Z,0
2018-04-10T01:57:47.718Z,0
2018-04-10T01:58:49.731Z,0
2018-04-10T01:59:51.471Z,0
2018-04-10T02:00:53.232Z,0
2018-04-10T02:01:55.080Z,0
2018-04-10T02:02:57.027Z,0
2018-04-10T02:03:58.767Z,0
2018-04-10T02:05:00.542Z,0
2018-04-10T02:06:02.263Z,0
2018-04-10T02:07:04.048Z,0
2018-04-10T02:08:05.819Z,0
2018-04-10T02:09:07.718Z,0
2018-04-10T02:10:09.590Z,0
2018-04-10T02:11:11.394Z,0
2018-04-10T02:12:13.351Z,0
2018-04-10T02:13:15.202Z,0
2018-04-10T02:14:17.007Z,0
2018-04-10T02:15:18.964Z,0
2018-04-10T02:16:20.878Z,0
2018-04-10T02:17:22.585Z,0
2018-04-10T02:18:24.394Z,0
2018-04-10T02:19:26.295Z,0
2018-04-10T02:20:28.180Z,0
2018-04-10T02:21:30.032Z,0
2018-04-10T02:22:31.811Z,0
2018-04-10T02:23:33.582Z,0
2018-04-10T02:24:35.467Z,0
2018-04-10T02:25:37.209Z,0
2018-04-10T02:26:39.091Z,0
2018-04-10T02:27:40.891Z,0
2018-04-10T02:28:42.641Z,0
2018-04-10T02:29:44.501Z,0
2018-04-10T02:30:46.291Z,0
2018-04-10T02:31:48.103Z,0
2018-04-10T02:32:50.026Z,0
2018-04-10T02:33:51.798Z,0
2018-04-10T02:34:53.571Z,0
2018-04-10T02:35:55.457Z,0
2018-04-10T02:36:57.180Z,0
2018-04-10T02:37:59.216Z,0
2018-04-10T02:39:00.997Z,0
2018-04-10T02:40:02.727Z,0
2018-04-10T02:41:04.489Z,0
2018-04-10T02:42:06.248Z,0
2018-04-10T02:43:08.108Z,0
2018-04-10T02:44:09.931Z,0
2018-04-10T02:45:11.700Z,0
2018-04-10T02:46:13.566Z,0
2018-04-10T02:47:15.343Z,0
2018-04-10T02:48:17.118Z,0
2018-04-10T02:49:19.013Z,0
2018-04-10T02:50:21.053Z,0
2018-04-10T02:51:22.872Z,0
2018-04-10T02:52:24.813Z,0
2018-04-10T02:53:26.563Z,0
2018-04-10T02:54:28.486Z,0
2018-04-10T02:55:30.422Z,0
2018-04-10T02:56:32.525Z,0
2018-04-10T02:57:34.380Z,0
2018-04-10T02:58:36.296Z,0
2018-04-10T02:59:38.112Z,0
2018-04-10T03:00:39.969Z,0
2018-04-10T03:01:41.774Z,0
2018-04-10T03:02:43.552Z,0
2018-04-10T03:03:45.345Z,0
2018-04-10T03:04:47.086Z,0
2018-04-10T03:05:49.019Z,0
2018-04-10T03:06:50.764Z,0
2018-04-10T03:07:52.614Z,0
2018-04-10T03:08:54.426Z,0
2018-04-10T03:09:56.169Z,0
2018-04-10T03:10:57.871Z,0
2018-04-10T03:11:59.580Z,0
2018-04-10T03:13:01.464Z,0
2018-04-10T03:14:03.238Z,0
2018-04-10T03:15:04.959Z,0
2018-04-10T03:16:06.631Z,0
2018-04-10T03:17:08.340Z,0
2018-04-10T03:18:10.082Z,0
2018-04-10T03:19:11.840Z,0
2018-04-10T03:20:13.716Z,0
2018-04-10T03:21:15.471Z,0
2018-04-10T03:22:17.198Z,0
2018-04-10T03:23:18.915Z,0
2018-04-10T03:24:20.626Z,0
2018-04-10T03:25:22.330Z,0
2018-04-10T03:26:24.122Z,0
2018-04-10T03:27:25.824Z,0
2018-04-10T03:28:27.704Z,0
2018-04-10T03:29:29.424Z,0
2018-04-10T03:30:31.185Z,0
2018-04-10T03:31:32.976Z,0
2018-04-10T03:32:34.775Z,0
2018-04-10T03:33:36.624Z,0
2018-04-10T03:34:38.374Z,0
2018-04-10T03:35:40.108Z,0
2018-04-10T03:36:42.004Z,0
2018-04-10T03:37:43.745Z,0
2018-04-10T03:38:45.538Z,0
2018-04-10T03:39:47.248Z,0
2018-04-10T03:40:49.116Z,0
2018-04-10T03:41:50.847Z,0
2018-04-10T03:42:52.709Z,0
2018-04-10T03:43:54.581Z,0
2018-04-10T03:44:56.371Z,0
2018-04-10T03:45:58.174Z,0
2018-04-10T03:47:00.146Z,0
2018-04-10T03:48:01.973Z,0
2018-04-10T03:49:03.850Z,0
2018-04-10T03:50:05.682Z,0
2018-04-10T03:51:07.487Z,0
2018-04-10T03:52:09.211Z,0
2018-04-10T03:53:11.749Z,0
2018-04-10T03:54:13.595Z,0
2018-04-10T03:55:15.451Z,0
2018-04-10T03:56:17.356Z,0
2018-04-10T03:57:19.392Z,0
2018-04-10T03:58:21.315Z,0
2018-04-10T03:59:23.066Z,0
2018-04-10T04:00:24.825Z,0
2018-04-10T04:01:26.781Z,0
2018-04-10T04:02:28.522Z,0
2018-04-10T04:03:30.301Z,0
2018-04-10T04:04:32.102Z,0
2018-04-10T04:05:34.032Z,0
2018-04-10T04:06:35.851Z,0
2018-04-10T04:07:37.746Z,0
2018-04-10T04:08:39.554Z,0
2018-04-10T04:09:41.360Z,0
2018-04-10T04:10:43.117Z,0
2018-04-10T04:11:44.883Z,0
2018-04-10T04:12:46.720Z,0
2018-04-10T04:13:48.550Z,0
2018-04-10T04:14:50.297Z,4
2018-04-10T04:15:52.036Z,4
2018-04-10T04:16:53.961Z,4
2018-04-10T04:17:55.773Z,4
2018-04-10T04:18:57.603Z,4
2018-04-10T04:19:59.402Z,4
2018-04-10T04:21:01.019Z,4
2018-04-10T04:22:02.788Z,4
2018-04-10T04:23:04.532Z,8
2018-04-10T04:24:06.286Z,12
2018-04-10T04:25:08.019Z,12
2018-04-10T04:26:09.713Z,16
2018-04-10T04:27:11.525Z,16
2018-04-10T04:28:13.278Z,20
2018-04-10T04:29:15.170Z,20
2018-04-10T04:30:16.949Z,24
2018-04-10T04:31:18.812Z,28
2018-04-10T04:32:20.514Z,32
2018-04-10T04:33:22.314Z,40
2018-04-10T04:34:24.125Z,48
2018-04-10T04:35:25.885Z,52
2018-04-10T04:36:27.788Z,60
2018-04-10T04:37:29.543Z,72
2018-04-10T04:38:31.272Z,84
2018-04-10T04:39:33.184Z,92
2018-04-10T04:40:34.945Z,104
2018-04-10T04:41:36.818Z,120
2018-04-10T04:42:38.641Z,132
2018-04-10T04:43:40.332Z,148
2018-04-10T04:44:42.082Z,164
2018-04-10T04:45:43.993Z,184
2018-04-10T04:46:45.803Z,204
2018-04-10T04:47:47.697Z,228
2018-04-10T04:48:49.484Z,252
2018-04-10T04:49:51.269Z,276
2018-04-10T04:50:53.129Z,308
2018-04-10T04:51:54.922Z,340
2018-04-10T04:52:56.699Z,372
2018-04-10T04:53:58.678Z,400
2018-04-10T04:55:00.469Z,436
2018-04-10T04:56:02.216Z,476
2018-04-10T04:57:03.920Z,512
2018-04-10T04:58:05.688Z,552
2018-04-10T04:59:07.616Z,596
2018-04-10T05:00:09.514Z,640
2018-04-10T05:01:11.637Z,684
2018-04-10T05:02:13.559Z,732
2018-04-10T05:03:15.459Z,780
2018-04-10T05:04:17.404Z,836
2018-04-10T05:05:19.408Z,888
2018-04-10T05:06:21.228Z,944
2018-04-10T05:07:23.090Z,1000
2018-04-10T05:08:24.951Z,1048
2018-04-10T05:09:26.792Z,1096
2018-04-10T05:10:28.578Z,1140
2018-04-10T05:11:30.439Z,1176
2018-04-10T05:12:32.251Z,1212
2018-04-10T05:13:33.977Z,1240
2018-04-10T05:14:35.935Z,1268
2018-04-10T05:15:37.816Z,1300
2018-04-10T05:16:39.683Z,1336
2018-04-10T05:17:41.473Z,1376
2018-04-10T05:18:43.501Z,1424
2018-04-10T05:19:45.352Z,1476
2018-04-10T05:20:47.138Z,1532
2018-04-10T05:21:48.897Z,1584
2018-04-10T05:22:50.708Z,1648
2018-04-10T05:23:52.576Z,1712
2018-04-10T05:24:54.514Z,1780
2018-04-10T05:25:56.404Z,1852
2018-04-10T05:26:58.242Z,1932
2018-04-10T05:27:59.975Z,2020
2018-04-10T05:29:01.643Z,2108
2018-04-10T05:30:03.487Z,2200
2018-04-10T05:31:05.329Z,2300
2018-04-10T05:32:07.006Z,2416
2018-04-10T05:33:08.815Z,2564
2018-04-10T05:34:10.622Z,2712
2018-04-10T05:35:12.366Z,2844
2018-04-10T05:36:14.105Z,2980
2018-04-10T05:37:15.892Z,3088
2018-04-10T05:38:17.736Z,3188
2018-04-10T05:39:19.491Z,3284
2018-04-10T05:40:21.269Z,3356
2018-04-10T05:41:23.067Z,3364
2018-04-10T05:42:24.897Z,3364
2018-04-10T05:43:26.643Z,3496
2018-04-10T05:44:28.330Z,3728
2018-04-10T05:45:30.024Z,3904
2018-04-10T05:46:31.853Z,4016
2018-04-10T05:47:33.602Z,4192
2018-04-10T05:48:35.302Z,4388
2018-04-10T05:49:37.007Z,4604
2018-04-10T05:50:38.752Z,4756
2018-04-10T05:51:40.444Z,4912
2018-04-10T05:52:42.142Z,5024
2018-04-10T05:53:43.887Z,5120
2018-04-10T05:54:45.565Z,5252
2018-04-10T05:55:47.322Z,5348
2018-04-10T05:56:49.128Z,5448
2018-04-10T05:57:50.832Z,5568
2018-04-10T05:58:52.556Z,5712
2018-04-10T05:59:54.343Z,5816
2018-04-10T06:00:56.103Z,5932
2018-04-10T06:01:57.845Z,6000
2018-04-10T06:02:59.644Z,5980
2018-04-10T06:04:01.569Z,6264
2018-04-10T06:05:03.336Z,6416
2018-04-10T06:06:05.044Z,6528
2018-04-10T06:07:06.903Z,6644
2018-04-10T06:08:08.770Z,6780
2018-04-10T06:09:10.605Z,6876
2018-04-10T06:10:12.480Z,7088
2018-04-10T06:11:14.276Z,7224
2018-04-10T06:12:16.011Z,7296
2018-04-10T06:13:18.013Z,7372
2018-04-10T06:14:19.716Z,7456
2018-04-10T06:15:21.484Z,7516
2018-04-10T06:16:23.203Z,7620
2018-04-10T06:17:24.949Z,7732
2018-04-10T06:18:26.609Z,7860
2018-04-10T06:19:28.327Z,8056
2018-04-10T06:20:30.061Z,8192
2018-04-10T06:21:31.771Z,8256
2018-04-10T06:22:33.603Z,8316
2018-04-10T06:23:35.374Z,8384
2018-04-10T06:24:37.623Z,8464
2018-04-10T06:25:38.763Z,8516
2018-04-10T06:26:40.456Z,8604
2018-04-10T06:27:42.210Z,8704
2018-04-10T06:28:44.030Z,8764
2018-04-10T06:29:45.786Z,8844
2018-04-10T06:30:47.524Z,8932
2018-04-10T06:31:49.266Z,9024
2018-04-10T06:32:50.987Z,9068
2018-04-10T06:33:52.759Z,9080
2018-04-10T06:34:54.476Z,9204
2018-04-10T06:35:56.184Z,9468
2018-04-10T06:36:58.013Z,9640
2018-04-10T06:37:59.796Z,9840
2018-04-10T06:39:01.477Z,10048
2018-04-10T06:40:03.250Z,10228
2018-04-10T06:41:04.981Z,10368
2018-04-10T06:42:06.778Z,10212
2018-04-10T06:43:08.591Z,10460
2018-04-10T06:44:10.332Z,10700
2018-04-10T06:45:12.159Z,10864
2018-04-10T06:46:13.960Z,10984
2018-04-10T06:47:15.669Z,11148
2018-04-10T06:48:17.384Z,11360
2018-04-10T06:49:19.086Z,11524
2018-04-10T06:50:20.852Z,11644
2018-04-10T06:51:22.599Z,11856
2018-04-10T06:52:24.329Z,12004
2018-04-10T06:53:26.065Z,12004
2018-04-10T06:54:27.777Z,12212
2018-04-10T06:55:29.449Z,12292
2018-04-10T06:56:31.222Z,11932
2018-04-10T06:57:33.087Z,11860
2018-04-10T06:58:34.909Z,12196
2018-04-10T06:59:36.726Z,12396
2018-04-10T07:00:38.514Z,10404
2018-04-10T07:01:41.111Z,11012
2018-04-10T07:02:42.909Z,13056
2018-04-10T07:03:44.650Z,12844
2018-04-10T07:04:46.391Z,14528
2018-04-10T07:05:48.309Z,14464
2018-04-10T07:06:50.204Z,11228
2018-04-10T07:07:51.883Z,11468
2018-04-10T07:08:53.681Z,13244
2018-04-10T07:09:55.437Z,10908
2018-04-10T07:10:57.275Z,11940
2018-04-10T07:11:59.222Z,12980
2018-04-10T07:13:00.945Z,15936
2018-04-10T07:14:03.559Z,18016
2018-04-10T07:15:05.106Z,18560
2018-04-10T07:16:06.787Z,18976
2018-04-10T07:17:08.560Z,17952
2018-04-10T07:18:10.355Z,14216
2018-04-10T07:19:12.155Z,19584
2018-04-10T07:20:13.959Z,16512
2018-04-10T07:21:15.725Z,17376
2018-04-10T07:22:17.369Z,17952
2018-04-10T07:23:19.097Z,19040
2018-04-10T07:24:20.834Z,20480
2018-04-10T07:25:22.685Z,19424
2018-04-10T07:26:24.430Z,18176
2018-04-10T07:27:26.257Z,16768
2018-04-10T07:28:27.951Z,17792
2018-04-10T07:29:29.761Z,14888
2018-04-10T07:30:31.768Z,17824
2018-04-10T07:31:33.612Z,26336
2018-04-10T07:32:35.365Z,25088
2018-04-10T07:33:37.213Z,22560
2018-04-10T07:34:38.942Z,23168
2018-04-10T07:35:40.777Z,19168
2018-04-10T07:36:42.524Z,28960
2018-04-10T07:37:44.267Z,23008
2018-04-10T07:38:46.028Z,40224
2018-04-10T07:39:47.884Z,36160
2018-04-10T07:40:49.528Z,24096
2018-04-10T07:41:51.179Z,23520
2018-04-10T07:42:53.001Z,16672
2018-04-10T07:43:54.798Z,18016
2018-04-10T07:44:56.841Z,19712
2018-04-10T07:45:58.772Z,20896
2018-04-10T07:47:00.963Z,18272
2018-04-10T07:48:02.843Z,18176
2018-04-10T07:49:04.648Z,16608
2018-04-10T07:50:06.512Z,18080
2018-04-10T07:51:08.346Z,16128
2018-04-10T07:52:10.924Z,16960
2018-04-10T07:53:12.723Z,18816
2018-04-10T07:54:14.601Z,15904
2018-04-10T07:55:16.588Z,15040
2018-04-10T07:56:18.596Z,15552
2018-04-10T07:57:20.493Z,17312
2018-04-10T07:58:22.439Z,16544
2018-04-10T07:59:24.413Z,15104
2018-04-10T08:00:26.253Z,17536
2018-04-10T08:01:28.225Z,16096
2018-04-10T08:02:30.095Z,13872
2018-04-10T08:03:32.238Z,12024
2018-04-10T08:04:34.024Z,10996
2018-04-10T08:05:35.852Z,10404
2018-04-10T08:06:37.696Z,10948
2018-04-10T08:07:39.476Z,11728
2018-04-10T08:08:41.342Z,12252
2018-04-10T08:09:43.170Z,14108
2018-04-10T08:10:45.024Z,15016
2018-04-10T08:11:46.971Z,14692
2018-04-10T08:12:48.936Z,13432
2018-04-10T08:13:51.417Z,13488
2018-04-10T08:14:53.195Z,13996
2018-04-10T08:15:55.346Z,15744
2018-04-10T08:16:57.219Z,17984
2018-04-10T08:17:59.023Z,17152
2018-04-10T08:19:00.807Z,15872
2018-04-10T08:20:02.574Z,17408
2018-04-10T08:21:04.359Z,17344
2018-04-10T08:22:06.191Z,18848
2018-04-10T08:23:07.995Z,18880
2018-04-10T08:24:09.716Z,20160
2018-04-10T08:25:11.450Z,20416
2018-04-10T08:26:13.404Z,19680
2018-04-10T08:27:15.385Z,20320
2018-04-10T08:28:17.269Z,20544
2018-04-10T08:29:18.954Z,19232
2018-04-10T08:30:20.856Z,18016
2018-04-10T08:31:22.865Z,20032
2018-04-10T08:32:24.546Z,19552
2018-04-10T08:33:26.360Z,17056
2018-04-10T08:34:28.161Z,17888
2018-04-10T08:35:29.908Z,18048
2018-04-10T08:36:31.611Z,18176
2018-04-10T08:37:33.400Z,17888
2018-04-10T08:38:35.140Z,17920
2018-04-10T08:39:36.999Z,18432
2018-04-10T08:40:38.813Z,18240
2018-04-10T08:41:40.806Z,18080
2018-04-10T08:42:42.544Z,18048
2018-04-10T08:43:44.475Z,17696
2018-04-10T08:44:46.380Z,17344
2018-04-10T08:45:48.905Z,17376
2018-04-10T08:46:50.579Z,17216
2018-04-10T08:47:52.514Z,16800
2018-04-10T08:48:54.316Z,16032
2018-04-10T08:49:56.217Z,16928
2018-04-10T08:50:58.077Z,17824
2018-04-10T08:51:59.833Z,18112
2018-04-10T08:53:01.714Z,19040
2018-04-10T08:54:03.561Z,19648
2018-04-10T08:55:05.322Z,19808
2018-04-10T08:56:07.267Z,19744
2018-04-10T08:57:09.281Z,19104
2018-04-10T08:58:11.950Z,18656
2018-04-10T08:59:13.749Z,18528
2018-04-10T09:00:15.642Z,17920
2018-04-10T09:01:17.699Z,17568
2018-04-10T09:02:19.440Z,17536
2018-04-10T09:03:21.375Z,17696
2018-04-10T09:04:23.075Z,17728
2018-04-10T09:05:24.947Z,17856
2018-04-10T09:06:26.955Z,17952
2018-04-10T09:07:28.699Z,17920
2018-04-10T09:08:30.568Z,18336
2018-04-10T09:09:32.501Z,18400
2018-04-10T09:10:35.824Z,18560
2018-04-10T09:11:37.669Z,18624
2018-04-10T09:12:39.454Z,18720
2018-04-10T09:13:41.273Z,18848
2018-04-10T09:14:43.036Z,19008
2018-04-10T09:15:44.906Z,19296
2018-04-10T09:16:46.784Z,33120
2018-04-10T09:17:49.015Z,57120
2018-04-10T09:18:50.831Z,61408
2018-04-10T09:19:52.792Z,62304
2018-04-10T09:20:54.624Z,63008
2018-04-10T09:21:56.454Z,64864
2018-04-10T09:22:58.465Z,66016
2018-04-10T09:24:00.249Z,66720
2018-04-10T09:25:02.111Z,65664
2018-04-10T09:26:04.083Z,67392
2018-04-10T09:27:06.025Z,68128
2018-04-10T09:28:07.946Z,71424
2018-04-10T09:29:09.997Z,71968
2018-04-10T09:30:11.673Z,72640
2018-04-10T09:31:13.529Z,73280
2018-04-10T09:32:16.037Z,73632
2018-04-10T09:33:17.833Z,75296
2018-04-10T09:34:19.790Z,78464
2018-04-10T09:35:21.732Z,76672
2018-04-10T09:36:23.632Z,76544
2018-04-10T09:37:25.632Z,80544
2018-04-10T09:38:27.616Z,81376
2018-04-10T09:39:29.532Z,79520
2018-04-10T09:40:31.434Z,71680
2018-04-10T09:41:33.425Z,68960
2018-04-10T09:42:35.273Z,70720
2018-04-10T09:43:37.082Z,71936
2018-04-10T09:44:39.880Z,74848
2018-04-10T09:45:41.654Z,73984
2018-04-10T09:46:43.625Z,74144
2018-04-10T09:47:45.544Z,72832
2018-04-10T09:48:47.535Z,72160
2018-04-10T09:49:49.675Z,72224
2018-04-10T09:50:51.494Z,70464
2018-04-10T09:51:53.506Z,70944
2018-04-10T09:52:55.943Z,71904
2018-04-10T09:53:59.006Z,70848
2018-04-10T09:55:01.561Z,66240
2018-04-10T09:56:03.472Z,64768
2018-04-10T09:57:05.360Z,66880
2018-04-10T09:58:07.312Z,69632
2018-04-10T09:59:09.517Z,51616
2018-04-10T10:00:11.522Z,70560
2018-04-10T10:01:13.325Z,72576
2018-04-10T10:02:15.177Z,71264
2018-04-10T10:03:16.863Z,60768
2018-04-10T10:04:18.718Z,44000
2018-04-10T10:05:20.383Z,63616
2018-04-10T10:06:22.187Z,55232
2018-04-10T10:07:23.974Z,48032
2018-04-10T10:08:25.738Z,71488
2018-04-10T10:09:27.559Z,74656
2018-04-10T10:10:29.356Z,73536
2018-04-10T10:11:31.070Z,44736
2018-04-10T10:12:32.854Z,49216
2018-04-10T10:13:34.713Z,66624
2018-04-10T10:14:36.735Z,60544
2018-04-10T10:15:38.549Z,59456
2018-04-10T10:16:40.598Z,59744
2018-04-10T10:17:42.511Z,62112
2018-04-10T10:18:44.423Z,54496
2018-04-10T10:19:46.336Z,69088
2018-04-10T10:20:48.235Z,47424
2018-04-10T10:21:49.938Z,58784
2018-04-10T10:22:51.734Z,55264
2018-04-10T10:23:53.773Z,29056
2018-04-10T10:24:55.755Z,29632
2018-04-10T10:25:57.854Z,52768
2018-04-10T10:26:59.654Z,54752
2018-04-10T10:28:01.676Z,45312
2018-04-10T10:29:03.583Z,50144
2018-04-10T10:30:05.490Z,29472
2018-04-10T10:31:07.452Z,36672
2018-04-10T10:32:09.407Z,38912
2018-04-10T10:33:12.107Z,45024
2018-04-10T10:34:14.202Z,33696
2018-04-10T10:35:16.621Z,34848
2018-04-10T10:36:18.567Z,23808
2018-04-10T10:37:21.509Z,24608
2018-04-10T10:38:23.619Z,24096
2018-04-10T10:39:25.571Z,24544
2018-04-10T10:40:27.442Z,32416
2018-04-10T10:41:29.386Z,28512
2018-04-10T10:42:31.258Z,31872
2018-04-10T10:43:33.181Z,25248
2018-04-10T10:44:35.177Z,26368
2018-04-10T10:45:37.235Z,27840
2018-04-10T10:46:39.158Z,25088
2018-04-10T10:47:41.119Z,22688
2018-04-10T10:48:43.049Z,32672
2018-04-10T10:49:44.840Z,21920
2018-04-10T10:50:46.709Z,25184
2018-04-10T10:51:48.608Z,28416
2018-04-10T10:52:50.391Z,30368
2018-04-10T10:53:52.258Z,31360
2018-04-10T10:54:54.210Z,36576
2018-04-10T10:55:56.340Z,39232
2018-04-10T10:56:58.128Z,32640
2018-04-10T10:57:59.975Z,52224
2018-04-10T10:59:02.947Z,42496
2018-04-10T11:00:04.880Z,48512
2018-04-10T11:01:06.861Z,83712
2018-04-10T11:02:08.813Z,88512
2018-04-10T11:03:11.398Z,74944
2018-04-10T11:04:13.260Z,67936
2018-04-10T11:05:15.047Z,55104
2018-04-10T11:06:16.910Z,31072
2018-04-10T11:07:18.558Z,29216
2018-04-10T11:08:20.264Z,68288
2018-04-10T11:09:21.945Z,77024
2018-04-10T11:10:24.304Z,68608
2018-04-10T11:11:26.156Z,43200
2018-04-10T11:12:27.929Z,26336
2018-04-10T11:13:29.760Z,44736
2018-04-10T11:14:31.607Z,45408
2018-04-10T11:15:33.343Z,44192
2018-04-10T11:16:35.101Z,43168
2018-04-10T11:17:36.934Z,53184
2018-04-10T11:18:38.840Z,61120
2018-04-10T11:19:40.660Z,39232
2018-04-10T11:20:42.448Z,49088
2018-04-10T11:21:44.280Z,54016
2018-04-10T11:22:46.000Z,80640
2018-04-10T11:23:48.158Z,72832
2018-04-10T11:24:49.850Z,65280
2018-04-10T11:25:51.637Z,37792
2018-04-10T11:26:53.368Z,36448
2018-04-10T11:27:55.062Z,33024
2018-04-10T11:28:56.806Z,43840
2018-04-10T11:29:58.704Z,51360
2018-04-10T11:31:00.593Z,61088
2018-04-10T11:32:02.546Z,34304
2018-04-10T11:33:04.256Z,41984
2018-04-10T11:34:06.161Z,66176
2018-04-10T11:35:08.138Z,68800
2018-04-10T11:36:09.922Z,72000
2018-04-10T11:37:11.707Z,73600
2018-04-10T11:38:14.239Z,48736
2018-04-10T11:39:16.106Z,38272
2018-04-10T11:40:17.955Z,24800
2018-04-10T11:41:19.742Z,25408
2018-04-10T11:42:22.097Z,28192
2018-04-10T11:43:23.855Z,32096
2018-04-10T11:44:25.585Z,41952
2018-04-10T11:45:27.759Z,44032
2018-04-10T11:46:29.519Z,38848
2018-04-10T11:47:31.248Z,24544
2018-04-10T11:48:32.949Z,25632
2018-04-10T11:49:35.401Z,34912
2018-04-10T11:50:37.106Z,30976
2018-04-10T11:51:38.867Z,63392
2018-04-10T11:52:40.593Z,25920
2018-04-10T11:53:42.965Z,26240
2018-04-10T11:54:44.764Z,30816
2018-04-10T11:55:46.456Z,20320
2018-04-10T11:56:48.208Z,18912
2018-04-10T11:57:49.929Z,48544
2018-04-10T11:58:51.687Z,53152
2018-04-10T11:59:53.389Z,55904
2018-04-10T12:00:55.179Z,74240
2018-04-10T12:01:57.091Z,60064
2018-04-10T12:02:59.030Z,31904
2018-04-10T12:04:00.844Z,32256
2018-04-10T12:05:02.579Z,66880
2018-04-10T12:06:04.473Z,59968
2018-04-10T12:07:06.243Z,55200
2018-04-10T12:08:08.047Z,61184
2018-04-10T12:09:09.813Z,57344
2018-04-10T12:10:11.599Z,41952
2018-04-10T12:11:13.361Z,62048
2018-04-10T12:12:15.221Z,32736
2018-04-10T12:13:17.040Z,37216
2018-04-10T12:14:19.070Z,46752
2018-04-10T12:15:20.916Z,22848
2018-04-10T12:16:22.684Z,35776
2018-04-10T12:17:25.467Z,67104
2018-04-10T12:18:27.243Z,62880
2018-04-10T12:19:29.277Z,63072
2018-04-10T12:20:31.185Z,66016
2018-04-10T12:21:33.016Z,29568
2018-04-10T12:22:34.867Z,65472
2018-04-10T12:23:37.798Z,69376
2018-04-10T12:24:39.521Z,64160
2018-04-10T12:25:41.400Z,41952
2018-04-10T12:26:43.233Z,64416
2018-04-10T12:27:45.047Z,73568
2018-04-10T12:28:46.948Z,68032
2018-04-10T12:29:48.791Z,71040
2018-04-10T12:30:50.646Z,72640
2018-04-10T12:31:52.546Z,73312
2018-04-10T12:32:54.533Z,74240
2018-04-10T12:33:56.666Z,75008
2018-04-10T12:34:58.533Z,74784
2018-04-10T12:36:00.735Z,72512
2018-04-10T12:37:02.681Z,73696
2018-04-10T12:38:04.597Z,74368
2018-04-10T12:39:06.534Z,74720
2018-04-10T12:40:08.517Z,73984
2018-04-10T12:41:10.426Z,72704
2018-04-10T12:42:12.266Z,71040
2018-04-10T12:43:14.229Z,69824
2018-04-10T12:44:16.024Z,69024
2018-04-10T12:45:17.844Z,68160
2018-04-10T12:46:19.644Z,69056
2018-04-10T12:47:21.654Z,69696
2018-04-10T12:48:23.361Z,71264
2018-04-10T12:49:25.149Z,71520
2018-04-10T12:50:26.961Z,71424
2018-04-10T12:51:28.952Z,67680
2018-04-10T12:52:30.835Z,66784
2018-04-10T12:53:32.693Z,66016
2018-04-10T12:54:34.610Z,65344
2018-04-10T12:55:36.440Z,66816
2018-04-10T12:56:38.277Z,65984
2018-04-10T12:57:40.317Z,63808
2018-04-10T12:58:42.172Z,64224
2018-04-10T12:59:44.007Z,64096
2018-04-10T13:00:45.939Z,64320
2018-04-10T13:01:47.910Z,58496
2018-04-10T13:02:49.749Z,45664
2018-04-10T13:03:51.781Z,37408
2018-04-10T13:04:54.157Z,35296
2018-04-10T13:05:55.992Z,35008
2018-04-10T13:06:58.267Z,34944
2018-04-10T13:08:00.028Z,34912
2018-04-10T13:09:02.007Z,35072
2018-04-10T13:10:04.033Z,35008
2018-04-10T13:11:05.942Z,34816
2018-04-10T13:12:08.105Z,34976
2018-04-10T13:13:09.761Z,34688
2018-04-10T13:14:11.687Z,35424
2018-04-10T13:15:13.356Z,35808
2018-04-10T13:16:15.346Z,35456
2018-04-10T13:17:17.442Z,35392
2018-04-10T13:18:19.328Z,35392
2018-04-10T13:19:21.250Z,35200
2018-04-10T13:20:23.046Z,35936
2018-04-10T13:21:25.106Z,36160
2018-04-10T13:22:27.341Z,37056
2018-04-10T13:23:29.165Z,37920
2018-04-10T13:24:31.053Z,38368
2018-04-10T13:25:32.954Z,39136
2018-04-10T13:26:34.796Z,38816
2018-04-10T13:27:36.821Z,38912
2018-04-10T13:28:38.654Z,40928
2018-04-10T13:29:40.359Z,43552
2018-04-10T13:30:42.207Z,47488
2018-04-10T13:31:44.100Z,54048
2018-04-10T13:32:45.923Z,57600
2018-04-10T13:33:47.800Z,56896
2018-04-10T13:34:49.684Z,54016
2018-04-10T13:35:51.449Z,49984
2018-04-10T13:36:53.374Z,49472
2018-04-10T13:37:55.163Z,48832
2018-04-10T13:38:57.168Z,48640
2018-04-10T13:39:59.067Z,46752
2018-04-10T13:41:00.923Z,44000
2018-04-10T13:42:02.739Z,41760
2018-04-10T13:43:04.736Z,40704
2018-04-10T13:44:06.487Z,41024
2018-04-10T13:45:08.250Z,43808
2018-04-10T13:46:10.136Z,45248
2018-04-10T13:47:11.962Z,43008
2018-04-10T13:48:13.802Z,40992
2018-04-10T13:49:15.680Z,39328
2018-04-10T13:50:17.515Z,39168
2018-04-10T13:51:19.589Z,38016
2018-04-10T13:52:21.511Z,37728
2018-04-10T13:53:23.370Z,37728
2018-04-10T13:54:25.304Z,38304
2018-04-10T13:55:27.279Z,38592
2018-04-10T13:56:30.093Z,39104